sensor_id;sensor_type;location;lat;lon;timestamp;temperature;humidity
15364;DHT22;7781;49.690;6.472;2023-11-21T00:00:10;9.10;99.90
15364;DHT22;7781;49.690;6.472;2023-11-21T00:02:40;9.10;99.90
15364;DHT22;7781;49.690;6.472;2023-11-21T00:05:09;9.10;99.90
15364;DHT22;7781;49.690;6.472;2023-11-21T00:07:41;9.00;99.90
15364;DHT22;7781;49.690;6.472;2023-11-21T00:10:11;9.00;99.90
15364;DHT22;7781;49.690;6.472;2023-11-21T00:12:41;9.10;99.90
15364;DHT22;7781;49.690;6.472;2023-11-21T00:15:10;9.10;99.90
15364;DHT22;7781;49.690;6.472;2023-11-21T00:17:39;9.00;99.90
15364;DHT22;7781;49.690;6.472;2023-11-21T00:20:09;9.10;99.90
15364;DHT22;7781;49.690;6.472;2023-11-21T00:22:42;9.10;99.90
15364;DHT22;7781;49.690;6.472;2023-11-21T00:25:11;9.10;99.90
15364;DHT22;7781;49.690;6.472;2023-11-21T00:27:42;9.10;99.90
15364;DHT22;7781;49.690;6.472;2023-11-21T00:30:12;9.00;99.90
15364;DHT22;7781;49.690;6.472;2023-11-21T00:32:41;9.00;99.90
15364;DHT22;7781;49.690;6.472;2023-11-21T00:35:10;9.00;99.90
15364;DHT22;7781;49.690;6.472;2023-11-21T00:37:38;9.00;99.90
15364;DHT22;7781;49.690;6.472;2023-11-21T00:40:11;9.00;99.90
15364;DHT22;7781;49.690;6.472;2023-11-21T00:42:42;9.00;99.90
15364;DHT22;7781;49.690;6.472;2023-11-21T00:45:11;9.00;99.90
15364;DHT22;7781;49.690;6.472;2023-11-21T00:47:39;9.00;99.90
15364;DHT22;7781;49.690;6.472;2023-11-21T00:50:09;8.90;99.90
15364;DHT22;7781;49.690;6.472;2023-11-21T00:52:37;8.90;99.90
15364;DHT22;7781;49.690;6.472;2023-11-21T00:55:06;8.90;99.90
15364;DHT22;7781;49.690;6.472;2023-11-21T00:57:37;8.90;99.90
15364;DHT22;7781;49.690;6.472;2023-11-21T01:00:06;8.80;99.90
15364;DHT22;7781;49.690;6.472;2023-11-21T01:02:36;8.90;99.90
15364;DHT22;7781;49.690;6.472;2023-11-21T01:05:06;8.80;99.90
15364;DHT22;7781;49.690;6.472;2023-11-21T01:07:35;8.80;99.90
15364;DHT22;7781;49.690;6.472;2023-11-21T01:10:05;8.80;99.90
15364;DHT22;7781;49.690;6.472;2023-11-21T01:12:37;8.70;99.90
15364;DHT22;7781;49.690;6.472;2023-11-21T01:15:06;8.80;99.90
15364;DHT22;7781;49.690;6.472;2023-11-21T01:17:35;8.70;99.90
15364;DHT22;7781;49.690;6.472;2023-11-21T01:20:06;8.70;99.90
15364;DHT22;7781;49.690;6.472;2023-11-21T01:22:40;8.70;99.90
15364;DHT22;7781;49.690;6.472;2023-11-21T01:25:09;8.70;99.90
15364;DHT22;7781;49.690;6.472;2023-11-21T01:27:39;8.70;99.90
15364;DHT22;7781;49.690;6.472;2023-11-21T01:30:09;8.80;99.90
15364;DHT22;7781;49.690;6.472;2023-11-21T01:32:38;8.80;99.90
15364;DHT22;7781;49.690;6.472;2023-11-21T01:35:09;8.80;99.90
15364;DHT22;7781;49.690;6.472;2023-11-21T01:37:38;8.80;99.90
15364;DHT22;7781;49.690;6.472;2023-11-21T01:40:08;8.80;99.90
15364;DHT22;7781;49.690;6.472;2023-11-21T01:42:42;8.90;99.90
15364;DHT22;7781;49.690;6.472;2023-11-21T01:45:12;8.80;99.90
15364;DHT22;7781;49.690;6.472;2023-11-21T01:47:42;8.80;99.90
15364;DHT22;7781;49.690;6.472;2023-11-21T01:50:15;8.80;99.90
15364;DHT22;7781;49.690;6.472;2023-11-21T01:52:45;8.80;99.90
15364;DHT22;7781;49.690;6.472;2023-11-21T01:55:15;8.80;99.90
15364;DHT22;7781;49.690;6.472;2023-11-21T01:57:56;8.80;99.90
15364;DHT22;7781;49.690;6.472;2023-11-21T02:00:25;8.90;99.90
15364;DHT22;7781;49.690;6.472;2023-11-21T02:02:56;8.90;99.90
15364;DHT22;7781;49.690;6.472;2023-11-21T02:05:25;8.90;99.90
15364;DHT22;7781;49.690;6.472;2023-11-21T02:07:54;8.90;99.90
15364;DHT22;7781;49.690;6.472;2023-11-21T02:10:24;9.00;99.90
15364;DHT22;7781;49.690;6.472;2023-11-21T02:12:53;9.00;99.90
15364;DHT22;7781;49.690;6.472;2023-11-21T02:15:25;9.00;99.90
15364;DHT22;7781;49.690;6.472;2023-11-21T02:17:56;9.10;99.90
15364;DHT22;7781;49.690;6.472;2023-11-21T02:20:27;9.10;99.90
15364;DHT22;7781;49.690;6.472;2023-11-21T02:22:58;9.10;99.90
15364;DHT22;7781;49.690;6.472;2023-11-21T02:25:29;9.10;99.90
15364;DHT22;7781;49.690;6.472;2023-11-21T02:28:01;9.10;99.90
15364;DHT22;7781;49.690;6.472;2023-11-21T02:30:30;9.10;99.90
15364;DHT22;7781;49.690;6.472;2023-11-21T02:32:59;9.10;99.90
15364;DHT22;7781;49.690;6.472;2023-11-21T02:35:29;9.10;99.90
15364;DHT22;7781;49.690;6.472;2023-11-21T02:38:01;9.10;99.90
15364;DHT22;7781;49.690;6.472;2023-11-21T02:40:30;9.10;99.90
15364;DHT22;7781;49.690;6.472;2023-11-21T02:42:58;9.10;99.90
15364;DHT22;7781;49.690;6.472;2023-11-21T02:45:27;9.10;99.90
15364;DHT22;7781;49.690;6.472;2023-11-21T02:47:55;9.20;99.90
15364;DHT22;7781;49.690;6.472;2023-11-21T02:50:25;9.20;99.90
15364;DHT22;7781;49.690;6.472;2023-11-21T02:52:54;9.20;99.90
15364;DHT22;7781;49.690;6.472;2023-11-21T02:55:27;9.20;99.90
15364;DHT22;7781;49.690;6.472;2023-11-21T02:57:56;9.10;99.90
15364;DHT22;7781;49.690;6.472;2023-11-21T03:00:25;9.10;99.90
15364;DHT22;7781;49.690;6.472;2023-11-21T03:02:55;9.10;99.90
15364;DHT22;7781;49.690;6.472;2023-11-21T03:05:25;9.10;99.90
15364;DHT22;7781;49.690;6.472;2023-11-21T03:07:56;9.00;99.90
15364;DHT22;7781;49.690;6.472;2023-11-21T03:10:27;9.00;99.90
15364;DHT22;7781;49.690;6.472;2023-11-21T03:12:56;8.90;99.90
15364;DHT22;7781;49.690;6.472;2023-11-21T03:15:25;8.90;99.90
15364;DHT22;7781;49.690;6.472;2023-11-21T03:17:53;8.80;99.90
15364;DHT22;7781;49.690;6.472;2023-11-21T03:20:23;8.80;99.90
15364;DHT22;7781;49.690;6.472;2023-11-21T03:22:52;8.70;99.90
15364;DHT22;7781;49.690;6.472;2023-11-21T03:25:21;8.70;99.90
15364;DHT22;7781;49.690;6.472;2023-11-21T03:27:53;8.70;99.90
15364;DHT22;7781;49.690;6.472;2023-11-21T03:30:23;8.60;99.90
15364;DHT22;7781;49.690;6.472;2023-11-21T03:32:52;8.70;99.90
15364;DHT22;7781;49.690;6.472;2023-11-21T03:35:20;8.70;99.90
15364;DHT22;7781;49.690;6.472;2023-11-21T03:37:49;8.70;99.90
15364;DHT22;7781;49.690;6.472;2023-11-21T03:40:18;8.70;99.90
15364;DHT22;7781;49.690;6.472;2023-11-21T03:42:48;8.70;99.90
15364;DHT22;7781;49.690;6.472;2023-11-21T03:45:22;8.80;99.90
15364;DHT22;7781;49.690;6.472;2023-11-21T03:47:50;8.80;99.90
15364;DHT22;7781;49.690;6.472;2023-11-21T03:50:20;8.80;99.90
15364;DHT22;7781;49.690;6.472;2023-11-21T03:52:49;8.80;99.90
15364;DHT22;7781;49.690;6.472;2023-11-21T03:55:17;8.70;99.90
15364;DHT22;7781;49.690;6.472;2023-11-21T03:57:46;8.70;99.90
15364;DHT22;7781;49.690;6.472;2023-11-21T04:00:15;8.70;99.90
15364;DHT22;7781;49.690;6.472;2023-11-21T04:02:46;8.60;99.90
15364;DHT22;7781;49.690;6.472;2023-11-21T04:05:14;8.70;99.90
15364;DHT22;7781;49.690;6.472;2023-11-21T04:07:44;8.60;99.90
15364;DHT22;7781;49.690;6.472;2023-11-21T04:10:12;8.60;99.90
15364;DHT22;7781;49.690;6.472;2023-11-21T04:12:42;8.60;99.90
15364;DHT22;7781;49.690;6.472;2023-11-21T04:15:11;8.50;99.90
15364;DHT22;7781;49.690;6.472;2023-11-21T04:17:40;8.50;99.90
15364;DHT22;7781;49.690;6.472;2023-11-21T04:20:11;8.50;99.90
15364;DHT22;7781;49.690;6.472;2023-11-21T04:22:41;8.50;99.90
15364;DHT22;7781;49.690;6.472;2023-11-21T04:25:14;8.50;99.90
15364;DHT22;7781;49.690;6.472;2023-11-21T04:27:44;8.40;99.90
15364;DHT22;7781;49.690;6.472;2023-11-21T04:30:14;8.30;99.90
15364;DHT22;7781;49.690;6.472;2023-11-21T04:32:43;8.30;99.90
15364;DHT22;7781;49.690;6.472;2023-11-21T04:35:13;8.20;99.90
15364;DHT22;7781;49.690;6.472;2023-11-21T04:37:42;8.20;99.90
15364;DHT22;7781;49.690;6.472;2023-11-21T04:40:11;8.10;99.90
15364;DHT22;7781;49.690;6.472;2023-11-21T04:42:40;8.10;99.90
15364;DHT22;7781;49.690;6.472;2023-11-21T04:45:09;8.20;99.90
15364;DHT22;7781;49.690;6.472;2023-11-21T04:47:40;8.20;99.90
15364;DHT22;7781;49.690;6.472;2023-11-21T04:50:09;8.20;99.90
15364;DHT22;7781;49.690;6.472;2023-11-21T04:52:40;8.20;99.90
15364;DHT22;7781;49.690;6.472;2023-11-21T04:55:08;8.20;99.90
15364;DHT22;7781;49.690;6.472;2023-11-21T04:57:38;8.30;99.90
15364;DHT22;7781;49.690;6.472;2023-11-21T05:00:10;8.30;99.90
15364;DHT22;7781;49.690;6.472;2023-11-21T05:02:40;8.30;99.90
15364;DHT22;7781;49.690;6.472;2023-11-21T05:05:10;8.30;99.90
15364;DHT22;7781;49.690;6.472;2023-11-21T05:07:40;8.30;99.90
15364;DHT22;7781;49.690;6.472;2023-11-21T05:10:10;8.30;99.90
15364;DHT22;7781;49.690;6.472;2023-11-21T05:12:42;8.30;99.90
15364;DHT22;7781;49.690;6.472;2023-11-21T05:15:14;8.20;99.90
15364;DHT22;7781;49.690;6.472;2023-11-21T05:17:43;8.20;99.90
15364;DHT22;7781;49.690;6.472;2023-11-21T05:20:14;8.10;99.90
15364;DHT22;7781;49.690;6.472;2023-11-21T05:22:47;8.10;99.90
15364;DHT22;7781;49.690;6.472;2023-11-21T05:25:16;8.10;99.90
15364;DHT22;7781;49.690;6.472;2023-11-21T05:27:45;8.10;99.90
15364;DHT22;7781;49.690;6.472;2023-11-21T05:30:14;8.10;99.90
15364;DHT22;7781;49.690;6.472;2023-11-21T05:32:43;8.00;99.90
15364;DHT22;7781;49.690;6.472;2023-11-21T05:35:14;8.00;99.90
15364;DHT22;7781;49.690;6.472;2023-11-21T05:37:46;8.00;99.90
15364;DHT22;7781;49.690;6.472;2023-11-21T05:40:15;8.00;99.90
15364;DHT22;7781;49.690;6.472;2023-11-21T05:42:44;7.90;99.90
15364;DHT22;7781;49.690;6.472;2023-11-21T05:45:13;8.00;99.90
15364;DHT22;7781;49.690;6.472;2023-11-21T05:47:43;7.90;99.90
15364;DHT22;7781;49.690;6.472;2023-11-21T05:50:16;7.90;99.90
15364;DHT22;7781;49.690;6.472;2023-11-21T05:52:47;7.90;99.90
15364;DHT22;7781;49.690;6.472;2023-11-21T05:55:16;7.80;99.90
15364;DHT22;7781;49.690;6.472;2023-11-21T05:57:48;7.80;99.90
15364;DHT22;7781;49.690;6.472;2023-11-21T06:00:17;7.80;99.90
15364;DHT22;7781;49.690;6.472;2023-11-21T06:02:49;7.80;99.90
15364;DHT22;7781;49.690;6.472;2023-11-21T06:05:24;7.80;99.90
15364;DHT22;7781;49.690;6.472;2023-11-21T06:07:56;7.80;99.90
15364;DHT22;7781;49.690;6.472;2023-11-21T06:10:27;7.80;99.90
15364;DHT22;7781;49.690;6.472;2023-11-21T06:12:57;7.80;99.90
15364;DHT22;7781;49.690;6.472;2023-11-21T06:15:31;7.80;99.90
15364;DHT22;7781;49.690;6.472;2023-11-21T06:18:00;7.80;99.90
15364;DHT22;7781;49.690;6.472;2023-11-21T06:20:29;7.70;99.90
15364;DHT22;7781;49.690;6.472;2023-11-21T06:22:59;7.70;99.90
15364;DHT22;7781;49.690;6.472;2023-11-21T06:25:31;7.70;99.90
15364;DHT22;7781;49.690;6.472;2023-11-21T06:28:03;7.70;99.90
15364;DHT22;7781;49.690;6.472;2023-11-21T06:30:32;7.70;99.90
15364;DHT22;7781;49.690;6.472;2023-11-21T06:33:00;7.70;99.90
15364;DHT22;7781;49.690;6.472;2023-11-21T06:35:29;7.70;99.90
15364;DHT22;7781;49.690;6.472;2023-11-21T06:38:02;7.70;99.90
15364;DHT22;7781;49.690;6.472;2023-11-21T06:40:31;7.80;99.90
15364;DHT22;7781;49.690;6.472;2023-11-21T06:43:01;7.80;99.90
15364;DHT22;7781;49.690;6.472;2023-11-21T06:45:29;7.70;99.90
15364;DHT22;7781;49.690;6.472;2023-11-21T06:47:58;7.70;99.90
15364;DHT22;7781;49.690;6.472;2023-11-21T06:50:27;7.70;99.90
15364;DHT22;7781;49.690;6.472;2023-11-21T06:52:56;7.80;99.90
15364;DHT22;7781;49.690;6.472;2023-11-21T06:55:26;7.80;99.90
15364;DHT22;7781;49.690;6.472;2023-11-21T06:57:54;7.80;99.90
15364;DHT22;7781;49.690;6.472;2023-11-21T07:00:25;7.80;99.90
15364;DHT22;7781;49.690;6.472;2023-11-21T07:02:55;7.70;99.90
15364;DHT22;7781;49.690;6.472;2023-11-21T07:05:24;7.70;99.90
15364;DHT22;7781;49.690;6.472;2023-11-21T07:07:53;7.70;99.90
15364;DHT22;7781;49.690;6.472;2023-11-21T07:10:22;7.70;99.90
15364;DHT22;7781;49.690;6.472;2023-11-21T07:12:52;7.70;99.90
15364;DHT22;7781;49.690;6.472;2023-11-21T07:15:21;7.70;99.90
15364;DHT22;7781;49.690;6.472;2023-11-21T07:17:50;7.70;99.90
15364;DHT22;7781;49.690;6.472;2023-11-21T07:20:21;7.70;99.90
15364;DHT22;7781;49.690;6.472;2023-11-21T07:22:50;7.80;99.90
15364;DHT22;7781;49.690;6.472;2023-11-21T07:25:19;7.70;99.90
15364;DHT22;7781;49.690;6.472;2023-11-21T07:27:49;7.80;99.90
15364;DHT22;7781;49.690;6.472;2023-11-21T07:30:19;7.80;99.90
15364;DHT22;7781;49.690;6.472;2023-11-21T07:32:49;7.80;99.90
15364;DHT22;7781;49.690;6.472;2023-11-21T07:35:17;7.80;99.90
15364;DHT22;7781;49.690;6.472;2023-11-21T07:37:46;7.80;99.90
15364;DHT22;7781;49.690;6.472;2023-11-21T07:40:16;7.80;99.90
15364;DHT22;7781;49.690;6.472;2023-11-21T07:42:45;7.80;99.90
15364;DHT22;7781;49.690;6.472;2023-11-21T07:45:13;7.80;99.90
15364;DHT22;7781;49.690;6.472;2023-11-21T07:47:44;7.90;99.90
15364;DHT22;7781;49.690;6.472;2023-11-21T07:50:13;7.90;99.90
15364;DHT22;7781;49.690;6.472;2023-11-21T07:52:41;7.90;99.90
15364;DHT22;7781;49.690;6.472;2023-11-21T07:55:10;7.90;99.90
15364;DHT22;7781;49.690;6.472;2023-11-21T07:57:39;8.00;99.90
15364;DHT22;7781;49.690;6.472;2023-11-21T08:00:09;8.00;99.90
15364;DHT22;7781;49.690;6.472;2023-11-21T08:02:41;8.10;99.90
15364;DHT22;7781;49.690;6.472;2023-11-21T08:05:15;8.10;99.90
15364;DHT22;7781;49.690;6.472;2023-11-21T08:07:54;8.10;99.90
15364;DHT22;7781;49.690;6.472;2023-11-21T08:10:23;8.10;99.90
15364;DHT22;7781;49.690;6.472;2023-11-21T08:12:52;8.10;99.90
15364;DHT22;7781;49.690;6.472;2023-11-21T08:15:20;8.20;99.90
15364;DHT22;7781;49.690;6.472;2023-11-21T08:17:49;8.20;99.90
15364;DHT22;7781;49.690;6.472;2023-11-21T08:20:19;8.10;99.90
15364;DHT22;7781;49.690;6.472;2023-11-21T08:22:50;8.20;99.90
15364;DHT22;7781;49.690;6.472;2023-11-21T08:25:19;8.20;99.90
15364;DHT22;7781;49.690;6.472;2023-11-21T08:27:47;8.10;99.90
15364;DHT22;7781;49.690;6.472;2023-11-21T08:30:17;8.10;99.90
15364;DHT22;7781;49.690;6.472;2023-11-21T08:32:46;8.10;99.90
15364;DHT22;7781;49.690;6.472;2023-11-21T08:35:15;8.10;99.90
15364;DHT22;7781;49.690;6.472;2023-11-21T08:37:46;8.20;99.90
15364;DHT22;7781;49.690;6.472;2023-11-21T08:40:14;8.20;99.90
15364;DHT22;7781;49.690;6.472;2023-11-21T08:42:44;8.20;99.90
15364;DHT22;7781;49.690;6.472;2023-11-21T08:45:13;8.30;99.90
15364;DHT22;7781;49.690;6.472;2023-11-21T08:47:42;8.30;99.90
15364;DHT22;7781;49.690;6.472;2023-11-21T08:50:12;8.40;99.90
15364;DHT22;7781;49.690;6.472;2023-11-21T08:52:42;8.40;99.90
15364;DHT22;7781;49.690;6.472;2023-11-21T08:55:15;8.50;99.90
15364;DHT22;7781;49.690;6.472;2023-11-21T08:57:44;8.50;99.90
15364;DHT22;7781;49.690;6.472;2023-11-21T09:00:14;8.60;99.90
15364;DHT22;7781;49.690;6.472;2023-11-21T09:02:45;8.60;99.90
15364;DHT22;7781;49.690;6.472;2023-11-21T09:05:14;8.60;99.90
15364;DHT22;7781;49.690;6.472;2023-11-21T09:07:43;8.70;99.90
15364;DHT22;7781;49.690;6.472;2023-11-21T09:10:15;8.70;99.90
15364;DHT22;7781;49.690;6.472;2023-11-21T09:12:43;8.70;99.90
15364;DHT22;7781;49.690;6.472;2023-11-21T09:15:12;8.70;99.90
15364;DHT22;7781;49.690;6.472;2023-11-21T09:17:42;8.80;99.90
15364;DHT22;7781;49.690;6.472;2023-11-21T09:20:12;8.90;99.90
15364;DHT22;7781;49.690;6.472;2023-11-21T09:22:42;8.90;99.90
15364;DHT22;7781;49.690;6.472;2023-11-21T09:25:13;9.00;99.90
15364;DHT22;7781;49.690;6.472;2023-11-21T09:27:42;9.00;99.90
15364;DHT22;7781;49.690;6.472;2023-11-21T09:30:13;9.10;99.90
15364;DHT22;7781;49.690;6.472;2023-11-21T09:32:42;9.10;99.90
15364;DHT22;7781;49.690;6.472;2023-11-21T09:35:13;9.20;99.90
15364;DHT22;7781;49.690;6.472;2023-11-21T09:37:43;9.20;99.90
15364;DHT22;7781;49.690;6.472;2023-11-21T09:40:21;9.30;99.90
15364;DHT22;7781;49.690;6.472;2023-11-21T09:42:54;9.30;99.90
15364;DHT22;7781;49.690;6.472;2023-11-21T09:45:28;9.30;99.90
15364;DHT22;7781;49.690;6.472;2023-11-21T09:47:58;9.40;99.90
15364;DHT22;7781;49.690;6.472;2023-11-21T09:50:27;9.40;99.90
15364;DHT22;7781;49.690;6.472;2023-11-21T09:53:10;9.40;99.90
15364;DHT22;7781;49.690;6.472;2023-11-21T09:55:44;9.50;99.90
15364;DHT22;7781;49.690;6.472;2023-11-21T09:58:13;9.50;99.90
15364;DHT22;7781;49.690;6.472;2023-11-21T10:00:44;9.60;99.90
15364;DHT22;7781;49.690;6.472;2023-11-21T10:03:13;9.70;99.90
15364;DHT22;7781;49.690;6.472;2023-11-21T10:05:43;9.80;99.90
15364;DHT22;7781;49.690;6.472;2023-11-21T10:08:13;9.80;99.90
15364;DHT22;7781;49.690;6.472;2023-11-21T10:10:46;9.80;99.90
15364;DHT22;7781;49.690;6.472;2023-11-21T10:13:18;9.90;99.90
15364;DHT22;7781;49.690;6.472;2023-11-21T10:15:50;10.00;99.90
15364;DHT22;7781;49.690;6.472;2023-11-21T10:18:19;10.00;99.90
15364;DHT22;7781;49.690;6.472;2023-11-21T10:20:49;10.00;99.90
15364;DHT22;7781;49.690;6.472;2023-11-21T10:23:21;10.10;99.90
15364;DHT22;7781;49.690;6.472;2023-11-21T10:25:53;10.10;99.90
15364;DHT22;7781;49.690;6.472;2023-11-21T10:28:28;10.10;99.90
15364;DHT22;7781;49.690;6.472;2023-11-21T10:30:57;10.20;99.90
15364;DHT22;7781;49.690;6.472;2023-11-21T10:33:28;10.20;99.90
15364;DHT22;7781;49.690;6.472;2023-11-21T10:35:57;10.20;99.90
15364;DHT22;7781;49.690;6.472;2023-11-21T10:38:28;10.20;99.90
15364;DHT22;7781;49.690;6.472;2023-11-21T10:41:10;10.20;99.90
15364;DHT22;7781;49.690;6.472;2023-11-21T10:43:43;10.30;99.90
15364;DHT22;7781;49.690;6.472;2023-11-21T10:46:13;10.30;99.90
15364;DHT22;7781;49.690;6.472;2023-11-21T10:48:42;10.30;99.90
15364;DHT22;7781;49.690;6.472;2023-11-21T10:51:11;10.40;99.90
15364;DHT22;7781;49.690;6.472;2023-11-21T10:53:48;10.40;99.90
15364;DHT22;7781;49.690;6.472;2023-11-21T10:56:23;10.40;99.90
15364;DHT22;7781;49.690;6.472;2023-11-21T10:58:52;10.40;99.90
15364;DHT22;7781;49.690;6.472;2023-11-21T11:01:21;10.50;99.90
15364;DHT22;7781;49.690;6.472;2023-11-21T11:03:53;10.40;99.90
15364;DHT22;7781;49.690;6.472;2023-11-21T11:06:24;10.50;99.90
15364;DHT22;7781;49.690;6.472;2023-11-21T11:08:54;10.50;99.90
15364;DHT22;7781;49.690;6.472;2023-11-21T11:11:25;10.40;99.90
15364;DHT22;7781;49.690;6.472;2023-11-21T11:13:54;10.40;99.90
15364;DHT22;7781;49.690;6.472;2023-11-21T11:16:24;10.40;99.90
15364;DHT22;7781;49.690;6.472;2023-11-21T11:18:53;10.40;99.90
15364;DHT22;7781;49.690;6.472;2023-11-21T11:21:31;10.40;99.90
15364;DHT22;7781;49.690;6.472;2023-11-21T11:24:16;10.50;99.90
15364;DHT22;7781;49.690;6.472;2023-11-21T11:26:56;10.50;99.90
15364;DHT22;7781;49.690;6.472;2023-11-21T11:29:33;10.60;99.90
15364;DHT22;7781;49.690;6.472;2023-11-21T11:32:10;10.70;99.90
15364;DHT22;7781;49.690;6.472;2023-11-21T11:34:46;10.70;99.90
15364;DHT22;7781;49.690;6.472;2023-11-21T11:37:17;10.70;99.90
15364;DHT22;7781;49.690;6.472;2023-11-21T11:39:46;10.80;99.90
15364;DHT22;7781;49.690;6.472;2023-11-21T11:42:18;10.80;99.90
15364;DHT22;7781;49.690;6.472;2023-11-21T11:44:51;10.90;99.90
15364;DHT22;7781;49.690;6.472;2023-11-21T11:47:26;10.90;99.90
15364;DHT22;7781;49.690;6.472;2023-11-21T11:50:03;10.90;99.90
15364;DHT22;7781;49.690;6.472;2023-11-21T11:52:36;11.00;99.90
15364;DHT22;7781;49.690;6.472;2023-11-21T11:55:07;10.90;99.90
15364;DHT22;7781;49.690;6.472;2023-11-21T11:57:41;10.90;99.90
15364;DHT22;7781;49.690;6.472;2023-11-21T12:00:15;10.90;99.90
15364;DHT22;7781;49.690;6.472;2023-11-21T12:02:47;10.80;99.90
15364;DHT22;7781;49.690;6.472;2023-11-21T12:05:17;10.80;99.90
15364;DHT22;7781;49.690;6.472;2023-11-21T12:07:50;10.80;99.90
15364;DHT22;7781;49.690;6.472;2023-11-21T12:10:22;11.00;99.90
15364;DHT22;7781;49.690;6.472;2023-11-21T12:12:55;11.00;99.90
15364;DHT22;7781;49.690;6.472;2023-11-21T12:15:26;11.20;99.90
15364;DHT22;7781;49.690;6.472;2023-11-21T12:17:56;11.30;99.90
15364;DHT22;7781;49.690;6.472;2023-11-21T12:20:26;11.40;99.90
15364;DHT22;7781;49.690;6.472;2023-11-21T12:22:56;11.50;99.90
15364;DHT22;7781;49.690;6.472;2023-11-21T12:25:28;11.40;96.50
15364;DHT22;7781;49.690;6.472;2023-11-21T12:28:01;11.40;99.90
15364;DHT22;7781;49.690;6.472;2023-11-21T12:30:31;11.40;99.90
15364;DHT22;7781;49.690;6.472;2023-11-21T12:33:00;11.30;99.90
15364;DHT22;7781;49.690;6.472;2023-11-21T12:35:31;11.40;99.90
15364;DHT22;7781;49.690;6.472;2023-11-21T12:38:03;11.30;99.90
15364;DHT22;7781;49.690;6.472;2023-11-21T12:40:32;11.40;99.90
15364;DHT22;7781;49.690;6.472;2023-11-21T12:43:03;11.30;99.90
15364;DHT22;7781;49.690;6.472;2023-11-21T12:45:32;11.30;99.90
15364;DHT22;7781;49.690;6.472;2023-11-21T12:48:02;11.30;99.90
15364;DHT22;7781;49.690;6.472;2023-11-21T12:50:36;11.20;99.90
15364;DHT22;7781;49.690;6.472;2023-11-21T12:53:07;11.20;99.90
15364;DHT22;7781;49.690;6.472;2023-11-21T12:55:37;11.20;99.90
15364;DHT22;7781;49.690;6.472;2023-11-21T12:58:08;11.20;99.90
15364;DHT22;7781;49.690;6.472;2023-11-21T13:00:40;11.10;99.90
15364;DHT22;7781;49.690;6.472;2023-11-21T13:03:11;11.00;99.90
15364;DHT22;7781;49.690;6.472;2023-11-21T13:05:46;10.90;99.90
15364;DHT22;7781;49.690;6.472;2023-11-21T13:08:20;10.80;99.90
15364;DHT22;7781;49.690;6.472;2023-11-21T13:10:52;10.80;99.90
15364;DHT22;7781;49.690;6.472;2023-11-21T13:13:24;10.80;99.90
15364;DHT22;7781;49.690;6.472;2023-11-21T13:15:56;10.80;99.90
15364;DHT22;7781;49.690;6.472;2023-11-21T13:18:28;10.80;99.90
15364;DHT22;7781;49.690;6.472;2023-11-21T13:20:59;10.80;99.90
15364;DHT22;7781;49.690;6.472;2023-11-21T13:23:29;10.90;99.90
15364;DHT22;7781;49.690;6.472;2023-11-21T13:26:04;11.00;91.80
15364;DHT22;7781;49.690;6.472;2023-11-21T13:28:35;11.00;91.30
15364;DHT22;7781;49.690;6.472;2023-11-21T13:31:05;11.10;90.20
15364;DHT22;7781;49.690;6.472;2023-11-21T13:33:49;11.30;77.30
15364;DHT22;7781;49.690;6.472;2023-11-21T13:36:24;11.30;44.50
15364;DHT22;7781;49.690;6.472;2023-11-21T13:38:53;11.40;29.90
15364;DHT22;7781;49.690;6.472;2023-11-21T13:41:23;11.60;36.30
15364;DHT22;7781;49.690;6.472;2023-11-21T13:44:00;11.60;52.70
15364;DHT22;7781;49.690;6.472;2023-11-21T13:46:43;11.70;44.30
15364;DHT22;7781;49.690;6.472;2023-11-21T13:49:13;11.80;49.30
15364;DHT22;7781;49.690;6.472;2023-11-21T13:51:44;11.80;56.50
15364;DHT22;7781;49.690;6.472;2023-11-21T13:54:15;11.80;65.20
15364;DHT22;7781;49.690;6.472;2023-11-21T13:56:46;11.80;65.80
15364;DHT22;7781;49.690;6.472;2023-11-21T13:59:18;11.80;69.80
15364;DHT22;7781;49.690;6.472;2023-11-21T14:01:50;11.80;34.60
15364;DHT22;7781;49.690;6.472;2023-11-21T14:04:25;11.80;1.00
15364;DHT22;7781;49.690;6.472;2023-11-21T14:07:14;11.70;1.00
15364;DHT22;7781;49.690;6.472;2023-11-21T14:09:53;11.60;8.90
15364;DHT22;7781;49.690;6.472;2023-11-21T14:12:23;11.60;5.60
15364;DHT22;7781;49.690;6.472;2023-11-21T14:14:53;11.50;1.00
15364;DHT22;7781;49.690;6.472;2023-11-21T14:17:22;11.50;13.70
15364;DHT22;7781;49.690;6.472;2023-11-21T14:19:51;11.50;7.40
15364;DHT22;7781;49.690;6.472;2023-11-21T14:22:22;11.50;1.00
15364;DHT22;7781;49.690;6.472;2023-11-21T14:24:53;11.50;8.00
15364;DHT22;7781;49.690;6.472;2023-11-21T14:27:27;11.50;2.00
15364;DHT22;7781;49.690;6.472;2023-11-21T14:29:58;11.50;1.00
15364;DHT22;7781;49.690;6.472;2023-11-21T14:32:26;11.50;1.00
15364;DHT22;7781;49.690;6.472;2023-11-21T14:34:55;11.50;1.00
15364;DHT22;7781;49.690;6.472;2023-11-21T14:37:24;11.40;99.90
15364;DHT22;7781;49.690;6.472;2023-11-21T14:39:53;11.40;1.00
15364;DHT22;7781;49.690;6.472;2023-11-21T14:42:22;11.40;1.00
15364;DHT22;7781;49.690;6.472;2023-11-21T14:44:52;11.30;37.70
15364;DHT22;7781;49.690;6.472;2023-11-21T14:47:28;11.40;87.30
15364;DHT22;7781;49.690;6.472;2023-11-21T14:49:57;11.30;99.90
15364;DHT22;7781;49.690;6.472;2023-11-21T14:52:31;11.30;99.90
15364;DHT22;7781;49.690;6.472;2023-11-21T14:55:02;11.30;99.90
15364;DHT22;7781;49.690;6.472;2023-11-21T14:57:58;11.20;99.90
15364;DHT22;7781;49.690;6.472;2023-11-21T15:00:31;11.10;99.90
15364;DHT22;7781;49.690;6.472;2023-11-21T15:03:14;11.10;99.90
15364;DHT22;7781;49.690;6.472;2023-11-21T15:06:02;11.10;99.90
15364;DHT22;7781;49.690;6.472;2023-11-21T15:08:51;11.00;99.90
15364;DHT22;7781;49.690;6.472;2023-11-21T15:11:42;10.90;99.90
15364;DHT22;7781;49.690;6.472;2023-11-21T15:14:11;10.80;99.90
15364;DHT22;7781;49.690;6.472;2023-11-21T15:16:43;10.80;99.90
15364;DHT22;7781;49.690;6.472;2023-11-21T15:19:19;10.80;99.90
15364;DHT22;7781;49.690;6.472;2023-11-21T15:21:53;10.70;99.90
15364;DHT22;7781;49.690;6.472;2023-11-21T15:24:22;10.60;99.90
15364;DHT22;7781;49.690;6.472;2023-11-21T15:26:50;10.60;99.90
15364;DHT22;7781;49.690;6.472;2023-11-21T15:29:19;10.50;99.90
15364;DHT22;7781;49.690;6.472;2023-11-21T15:31:48;10.50;99.90
15364;DHT22;7781;49.690;6.472;2023-11-21T15:34:20;10.50;99.90
15364;DHT22;7781;49.690;6.472;2023-11-21T15:36:49;10.50;99.90
15364;DHT22;7781;49.690;6.472;2023-11-21T15:39:20;10.40;99.90
15364;DHT22;7781;49.690;6.472;2023-11-21T15:41:52;10.30;99.90
15364;DHT22;7781;49.690;6.472;2023-11-21T15:44:21;10.20;99.90
15364;DHT22;7781;49.690;6.472;2023-11-21T15:46:52;10.10;99.90
15364;DHT22;7781;49.690;6.472;2023-11-21T15:49:22;10.00;99.90
15364;DHT22;7781;49.690;6.472;2023-11-21T15:51:51;9.90;99.90
15364;DHT22;7781;49.690;6.472;2023-11-21T15:54:22;9.90;99.90
15364;DHT22;7781;49.690;6.472;2023-11-21T15:56:52;9.70;99.90
15364;DHT22;7781;49.690;6.472;2023-11-21T15:59:24;9.60;99.90
15364;DHT22;7781;49.690;6.472;2023-11-21T16:01:56;9.50;99.90
15364;DHT22;7781;49.690;6.472;2023-11-21T16:04:27;9.40;99.90
15364;DHT22;7781;49.690;6.472;2023-11-21T16:06:56;9.20;99.90
15364;DHT22;7781;49.690;6.472;2023-11-21T16:09:27;9.10;99.90
15364;DHT22;7781;49.690;6.472;2023-11-21T16:11:59;9.00;99.90
15364;DHT22;7781;49.690;6.472;2023-11-21T16:14:30;8.90;99.90
15364;DHT22;7781;49.690;6.472;2023-11-21T16:17:04;8.90;99.90
15364;DHT22;7781;49.690;6.472;2023-11-21T16:19:35;8.80;99.90